Time;durP1;ratioP1;P1;durP2;ratioP2;P2;SDS_P1;SDS_P2;PMS_P1;PMS_P2;Temp;Humidity;BMP_temperature;BMP_pressure;BME280_temperature;BME280_humidity;BME280_pressure;Samples;Min_cycle;Max_cycle;Signal;HPM_P1;HPM_P2
2023/01/24 00:00:44;;;;;;;12.32;9.48;;;2.50;99.90;;;;;;7341282;32;20196;-62
2023/01/24 00:04:46;;;;;;;16.33;10.35;;;2.50;99.90;;;;;;7333034;32;20120;-61
2023/01/24 00:08:48;;;;;;;15.07;9.38;;;2.60;99.90;;;;;;7338703;32;20593;-60
2023/01/24 00:12:50;;;;;;;13.15;8.70;;;2.50;99.90;;;;;;7328637;32;20182;-61
2023/01/24 00:16:51;;;;;;;14.35;9.90;;;2.40;99.90;;;;;;7338270;32;20343;-59
2023/01/24 00:21:09;;;;;;;13.85;9.15;;;2.50;99.90;;;;;;7341076;32;20190;-58
2023/01/24 00:25:11;;;;;;;;;;;2.50;99.90;;;;;;7345656;32;20151;-59
2023/01/24 00:29:12;;;;;;;12.35;8.45;;;2.40;99.90;;;;;;7346884;32;20486;-60
2023/01/24 00:33:14;;;;;;;12.43;9.27;;;2.50;99.90;;;;;;7348085;32;20202;-59
2023/01/24 00:37:16;;;;;;;13.95;9.45;;;2.40;99.90;;;;;;7350860;32;20389;-60
2023/01/24 00:41:18;;;;;;;12.90;8.90;;;2.40;99.90;;;;;;7348626;32;20107;-60
2023/01/24 00:45:19;;;;;;;13.80;9.45;;;2.50;99.90;;;;;;7348496;32;20165;-60
2023/01/24 00:49:21;;;;;;;14.55;9.98;;;2.50;99.90;;;;;;7343358;32;20178;-60
2023/01/24 00:53:25;;;;;;;14.70;10.13;;;2.50;99.90;;;;;;7350938;32;20171;-60
2023/01/24 00:57:27;;;;;;;15.23;9.82;;;2.50;99.90;;;;;;7350663;32;20755;-60
2023/01/24 01:01:29;;;;;;;15.73;10.35;;;2.40;99.90;;;;;;7347752;32;20202;-60
2023/01/24 01:05:31;;;;;;;14.23;10.48;;;2.40;99.90;;;;;;7347814;32;20092;-59
2023/01/24 01:09:32;;;;;;;15.07;10.30;;;2.50;99.90;;;;;;7349056;32;20198;-59
2023/01/24 01:13:34;;;;;;;15.18;9.70;;;2.40;99.90;;;;;;7348394;32;20229;-59
2023/01/24 01:17:36;;;;;;;13.18;9.63;;;2.40;99.90;;;;;;7343440;32;20112;-59
2023/01/24 01:21:37;;;;;;;14.52;9.50;;;2.40;99.90;;;;;;7345944;32;20140;-60
2023/01/24 01:25:39;;;;;;;16.27;9.82;;;2.40;99.90;;;;;;7344516;32;20125;-61
2023/01/24 01:29:41;;;;;;;13.48;9.18;;;2.40;99.90;;;;;;7345908;32;20108;-61
2023/01/24 01:33:43;;;;;;;14.25;9.18;;;2.40;99.90;;;;;;7350013;32;20300;-61
2023/01/24 01:37:45;;;;;;;12.90;8.73;;;2.40;99.90;;;;;;7340715;32;20125;-61
2023/01/24 01:41:47;;;;;;;14.48;9.70;;;2.50;99.90;;;;;;7343426;32;20564;-60
2023/01/24 01:45:51;;;;;;;14.40;9.10;;;2.30;99.90;;;;;;7342395;32;20224;-60
2023/01/24 01:50:14;;;;;;;13.43;8.38;;;2.40;99.90;;;;;;7344172;32;20322;-61
2023/01/24 01:54:22;;;;;;;11.85;8.50;;;2.40;99.90;;;;;;7347591;32;20229;-61
2023/01/24 01:58:24;;;;;;;12.75;9.10;;;2.40;99.90;;;;;;7345313;32;20107;-62
2023/01/24 02:02:26;;;;;;;11.15;8.18;;;2.40;99.90;;;;;;7344549;32;20215;-61
2023/01/24 02:06:47;;;;;;;11.30;8.02;;;2.40;99.90;;;;;;7341618;32;20107;-60
2023/01/24 02:19:57;;;;;;;9.50;6.53;;;2.40;99.90;;;;;;7343226;32;20130;-60
2023/01/24 02:24:10;;;;;;;9.73;6.62;;;2.40;99.90;;;;;;7349877;32;20125;-60
2023/01/24 02:28:12;;;;;;;7.85;5.62;;;2.30;99.90;;;;;;7346358;32;20157;-60
2023/01/24 02:32:16;;;;;;;8.07;5.55;;;2.30;99.90;;;;;;7346273;32;20107;-61
2023/01/24 02:36:34;;;;;;;8.82;5.68;;;2.40;99.90;;;;;;7338773;32;20300;-59
2023/01/24 02:40:36;;;;;;;6.53;5.30;;;2.40;99.90;;;;;;7343842;32;20099;-60
2023/01/24 02:45:00;;;;;;;9.10;5.45;;;2.40;99.90;;;;;;7348962;32;20121;-59
2023/01/24 02:49:02;;;;;;;7.72;5.78;;;2.30;99.90;;;;;;7337223;32;20111;-61
2023/01/24 03:01:46;;;;;;;7.15;5.22;;;2.30;99.90;;;;;;7337533;32;20163;-60
2023/01/24 03:05:56;;;;;;;6.35;4.25;;;2.40;99.90;;;;;;7344104;32;20133;-60
2023/01/24 03:09:58;;;;;;;7.35;4.93;;;2.30;99.90;;;;;;7338267;32;20446;-61
2023/01/24 03:35:53;;;;;;;7.43;5.10;;;2.20;99.90;;;;;;7345527;32;20278;-60
2023/01/24 03:39:58;;;;;;;6.80;5.12;;;2.10;99.90;;;;;;7340455;32;20129;-62
2023/01/24 03:44:00;;;;;;;9.02;6.07;;;2.20;99.90;;;;;;7343227;32;20131;-60
2023/01/24 03:48:09;;;;;;;9.10;5.53;;;2.20;99.90;;;;;;7339347;32;20384;-60
2023/01/24 03:52:29;;;;;;;7.05;4.97;;;2.20;99.90;;;;;;7340086;32;20177;-60
2023/01/24 03:56:31;;;;;;;7.60;5.32;;;2.20;99.90;;;;;;7343396;32;20107;-60
2023/01/24 04:00:33;;;;;;;8.23;5.50;;;2.20;99.90;;;;;;7339794;32;20182;-60
2023/01/24 04:08:55;;;;;;;9.43;5.82;;;2.20;99.90;;;;;;7342145;32;20107;-61
2023/01/24 04:12:57;;;;;;;8.60;5.90;;;2.10;99.90;;;;;;7342845;32;20647;-59
2023/01/24 04:16:59;;;;;;;8.80;5.75;;;2.10;99.90;;;;;;7342677;32;20129;-59
2023/01/24 04:21:02;;;;;;;8.00;5.70;;;2.10;99.90;;;;;;7347229;32;20186;-59
2023/01/24 04:25:05;;;;;;;8.88;5.65;;;2.20;99.90;;;;;;7345265;32;20103;-60
2023/01/24 04:29:06;;;;;;;8.90;6.07;;;2.10;99.90;;;;;;7343378;32;20149;-59
2023/01/24 04:33:08;;;;;;;8.50;5.72;;;2.10;99.90;;;;;;7338227;32;20125;-59
2023/01/24 04:37:10;;;;;;;9.15;6.15;;;2.10;99.90;;;;;;7341173;32;20103;-60
2023/01/24 04:41:13;;;;;;;9.43;5.93;;;2.10;99.90;;;;;;7344695;32;20145;-59
2023/01/24 04:45:15;;;;;;;9.25;5.40;;;2.20;99.90;;;;;;7341282;32;20121;-59
2023/01/24 04:49:17;;;;;;;7.20;5.15;;;2.10;99.90;;;;;;7340573;32;20208;-59
2023/01/24 04:53:19;;;;;;;7.97;5.45;;;2.10;99.90;;;;;;7344669;32;20222;-59
2023/01/24 04:57:20;;;;;;;8.23;5.70;;;2.00;99.90;;;;;;7345573;32;20129;-61
2023/01/24 05:01:22;;;;;;;8.70;6.03;;;2.10;99.90;;;;;;7335643;32;20284;-59
2023/01/24 05:05:24;;;;;;;8.77;5.60;;;2.10;99.90;;;;;;7336469;32;20183;-59
2023/01/24 05:09:25;;;;;;;8.43;5.90;;;2.10;99.90;;;;;;7343837;32;20103;-60
2023/01/24 05:13:27;;;;;;;9.48;6.15;;;2.10;99.90;;;;;;7349353;32;20164;-58
2023/01/24 05:17:29;;;;;;;8.73;6.00;;;2.10;99.90;;;;;;7343979;32;20587;-59
2023/01/24 05:21:31;;;;;;;10.43;6.53;;;2.00;99.90;;;;;;7346720;32;20731;-60
2023/01/24 05:25:33;;;;;;;10.48;5.87;;;2.10;99.90;;;;;;7344025;32;20782;-60
2023/01/24 05:29:34;;;;;;;9.32;6.47;;;2.10;99.90;;;;;;7345302;32;20111;-59
2023/01/24 05:33:36;;;;;;;9.77;6.72;;;2.10;99.90;;;;;;7345706;32;20921;-59
2023/01/24 05:37:39;;;;;;;10.13;6.85;;;2.00;99.90;;;;;;7347660;32;20134;-59
2023/01/24 05:41:41;;;;;;;8.65;5.97;;;2.00;99.90;;;;;;7347505;32;20152;-60
2023/01/24 05:45:43;;;;;;;9.30;6.87;;;2.00;99.90;;;;;;7342311;32;20213;-59
2023/01/24 05:49:45;;;;;;;9.18;6.25;;;2.00;99.90;;;;;;7345735;32;20671;-60
2023/01/24 05:53:48;;;;;;;8.43;5.90;;;2.10;99.90;;;;;;7341918;32;20133;-60
2023/01/24 05:57:50;;;;;;;9.15;6.37;;;2.00;99.90;;;;;;7339794;32;20119;-60
2023/01/24 06:01:51;;;;;;;11.77;6.78;;;2.00;99.90;;;;;;7345740;32;20120;-60
2023/01/24 06:05:54;;;;;;;9.30;6.90;;;2.00;99.90;;;;;;7345226;32;20111;-60
2023/01/24 06:09:56;;;;;;;10.70;7.00;;;1.90;99.90;;;;;;7342270;32;20513;-60
2023/01/24 06:13:58;;;;;;;10.00;6.82;;;2.00;99.90;;;;;;7349843;32;20169;-60
2023/01/24 06:18:00;;;;;;;9.85;7.50;;;2.00;99.90;;;;;;7342159;32;20470;-59
2023/01/24 06:22:32;;;;;;;12.05;7.60;;;2.00;99.90;;;;;;7347330;32;20103;-60
2023/01/24 06:26:34;;;;;;;11.55;8.63;;;2.00;99.90;;;;;;7334529;32;20564;-60
2023/01/24 06:30:39;;;;;;;12.35;8.50;;;2.10;99.90;;;;;;7343827;32;20534;-59
2023/01/24 06:35:00;;;;;;;10.95;7.30;;;2.00;99.90;;;;;;7348109;32;20613;-60
2023/01/24 06:39:02;;;;;;;10.27;7.45;;;2.00;99.90;;;;;;7336536;32;20126;-60
2023/01/24 06:43:04;;;;;;;10.38;7.43;;;2.10;99.90;;;;;;7336283;32;20183;-60
2023/01/24 06:47:10;;;;;;;10.25;7.45;;;2.00;99.90;;;;;;7343416;32;20270;-61
2023/01/24 06:51:15;;;;;;;11.18;7.97;;;2.00;99.90;;;;;;7340079;32;20113;-59
2023/01/24 06:55:17;;;;;;;12.13;7.97;;;2.00;99.90;;;;;;7340509;32;20103;-59
2023/01/24 06:59:22;;;;;;;10.77;7.70;;;2.00;99.90;;;;;;7342610;32;20214;-61
2023/01/24 07:03:24;;;;;;;10.90;7.22;;;2.10;99.90;;;;;;7332648;32;20134;-62
2023/01/24 07:07:25;;;;;;;10.63;7.70;;;2.00;99.90;;;;;;7336681;32;20512;-61
2023/01/24 07:11:27;;;;;;;11.20;7.65;;;2.00;99.90;;;;;;7333068;32;20603;-60
2023/01/24 07:15:29;;;;;;;11.73;8.00;;;2.00;99.90;;;;;;7336224;32;20121;-60
2023/01/24 07:19:31;;;;;;;12.00;8.13;;;2.00;99.90;;;;;;7343816;32;20668;-61
2023/01/24 07:23:34;;;;;;;13.15;9.82;;;2.00;99.90;;;;;;7338883;32;20127;-59
2023/01/24 07:27:36;;;;;;;14.45;9.23;;;1.90;99.90;;;;;;7331866;32;20126;-61
2023/01/24 07:31:38;;;;;;;12.30;9.35;;;1.90;99.90;;;;;;7336930;32;20230;-61
2023/01/24 07:35:41;;;;;;;13.70;8.90;;;1.90;99.90;;;;;;7326656;32;20230;-60
2023/01/24 07:39:42;;;;;;;11.25;8.40;;;1.90;99.90;;;;;;7338158;32;20099;-62
2023/01/24 07:43:44;;;;;;;12.57;8.60;;;2.00;99.90;;;;;;7337886;32;20259;-61
2023/01/24 07:47:46;;;;;;;13.13;9.57;;;2.00;99.90;;;;;;7336408;32;21341;-61
2023/01/24 07:51:48;;;;;;;10.50;7.80;;;2.00;99.90;;;;;;7342957;32;20137;-61
2023/01/24 07:55:49;;;;;;;14.02;8.98;;;2.00;99.90;;;;;;7337299;32;20112;-62
2023/01/24 08:00:03;;;;;;;12.95;9.13;;;2.00;99.90;;;;;;7335304;32;20198;-60
2023/01/24 08:04:05;;;;;;;13.05;8.95;;;2.00;99.90;;;;;;7332552;32;20119;-63
2023/01/24 08:08:06;;;;;;;14.05;9.35;;;1.90;99.90;;;;;;7334914;32;20138;-61
2023/01/24 08:12:08;;;;;;;14.60;10.23;;;1.90;99.90;;;;;;7339725;32;20182;-61
2023/01/24 08:16:10;;;;;;;13.82;8.85;;;2.00;99.90;;;;;;7339459;32;20190;-62
2023/01/24 08:20:13;;;;;;;12.30;9.02;;;2.00;99.90;;;;;;7343485;32;20491;-63
2023/01/24 08:24:15;;;;;;;11.32;8.98;;;2.00;99.90;;;;;;7342213;32;20112;-60
2023/01/24 08:28:17;;;;;;;11.63;8.40;;;2.00;99.90;;;;;;7344010;32;20133;-61
2023/01/24 08:32:19;;;;;;;12.15;8.60;;;2.00;99.90;;;;;;7342466;32;20486;-61
2023/01/24 08:36:21;;;;;;;12.35;9.10;;;2.10;99.90;;;;;;7339124;32;20173;-61
2023/01/24 08:40:22;;;;;;;14.98;9.80;;;2.10;99.90;;;;;;7341708;32;20146;-61
2023/01/24 08:44:24;;;;;;;12.30;8.20;;;2.00;99.90;;;;;;7346282;32;20584;-61
2023/01/24 08:48:28;;;;;;;10.77;7.93;;;2.10;99.90;;;;;;7340782;32;20126;-61
2023/01/24 08:52:30;;;;;;;13.73;9.00;;;2.10;99.90;;;;;;7342267;32;20125;-61
2023/01/24 08:56:32;;;;;;;14.27;9.77;;;2.20;99.90;;;;;;7343756;32;20100;-61
2023/01/24 09:00:34;;;;;;;12.10;8.77;;;2.10;99.90;;;;;;7337803;32;20832;-59
2023/01/24 09:04:36;;;;;;;13.50;9.20;;;2.10;99.90;;;;;;7341831;32;20111;-61
2023/01/24 09:08:37;;;;;;;10.75;8.10;;;2.20;99.90;;;;;;7342754;32;20222;-60
2023/01/24 09:12:39;;;;;;;12.73;9.27;;;2.30;99.90;;;;;;7344010;32;20194;-61
2023/01/24 09:16:41;;;;;;;12.73;8.80;;;2.20;99.90;;;;;;7334146;32;20107;-60
2023/01/24 09:20:43;;;;;;;14.70;8.73;;;2.40;99.90;;;;;;7343228;32;20121;-60
2023/01/24 09:24:45;;;;;;;10.75;7.78;;;2.50;99.90;;;;;;7340806;32;20247;-62
2023/01/24 09:28:46;;;;;;;12.82;8.85;;;2.30;99.90;;;;;;7340592;32;20182;-60
2023/01/24 09:32:48;;;;;;;13.62;9.52;;;2.40;99.90;;;;;;7331920;32;20209;-61
2023/01/24 09:36:50;;;;;;;11.93;9.07;;;2.50;99.90;;;;;;7339752;32;20099;-61
2023/01/24 09:41:24;;;;;;;11.43;8.25;;;2.50;99.90;;;;;;7340954;32;20232;-62
2023/01/24 09:45:37;;;;;;;12.23;8.00;;;2.50;99.90;;;;;;7303228;32;20298;-60
2023/01/24 09:49:40;;;;;;;9.02;6.93;;;2.60;99.90;;;;;;7340805;32;21927;-60
2023/01/24 09:53:45;;;;;;;11.35;7.75;;;2.50;99.90;;;;;;7340556;32;20125;-61
2023/01/24 09:58:01;;;;;;;12.10;7.70;;;2.50;99.90;;;;;;7329179;32;20227;-60
2023/01/24 10:02:16;;;;;;;10.68;7.47;;;2.60;99.90;;;;;;7338354;32;20145;-61
2023/01/24 10:06:26;;;;;;;12.00;7.97;;;2.60;99.90;;;;;;7343375;32;20481;-62
2023/01/24 10:10:51;;;;;;;10.85;7.53;;;2.50;99.90;;;;;;7344437;32;20136;-61
2023/01/24 10:15:15;;;;;;;11.45;8.30;;;2.60;99.90;;;;;;7341264;32;20504;-63
2023/01/24 10:19:47;;;;;;;10.70;7.90;;;2.60;99.90;;;;;;7341500;32;20119;-63
2023/01/24 10:23:54;;;;;;;11.23;7.07;;;2.70;99.90;;;;;;7332723;32;20107;-61
2023/01/24 10:27:59;;;;;;;10.55;8.05;;;2.60;99.90;;;;;;7345669;32;20178;-62
2023/01/24 10:32:02;;;;;;;11.35;8.05;;;2.70;99.90;;;;;;7334786;32;20156;-61
2023/01/24 10:36:15;;;;;;;10.65;7.80;;;2.70;99.90;;;;;;7342683;32;21013;-61
2023/01/24 10:40:17;;;;;;;11.57;8.70;;;2.70;99.90;;;;;;7340674;32;20237;-61
2023/01/24 10:44:39;;;;;;;11.88;8.52;;;2.70;99.90;;;;;;7342430;32;20139;-61
2023/01/24 10:48:50;;;;;;;11.27;7.97;;;2.80;99.90;;;;;;7335562;32;20100;-61
2023/01/24 10:52:52;;;;;;;14.82;7.68;;;2.90;99.90;;;;;;7340862;32;20111;-61
2023/01/24 10:56:53;;;;;;;12.90;9.00;;;3.00;99.90;;;;;;7339328;32;20104;-61
2023/01/24 11:00:58;;;;;;;11.05;8.68;;;2.90;99.90;;;;;;7341807;32;20232;-61
2023/01/24 11:05:13;;;;;;;12.60;7.82;;;2.80;99.90;;;;;;7335054;32;20561;-61
2023/01/24 11:09:19;;;;;;;13.18;8.20;;;2.90;99.90;;;;;;7339639;32;20833;-62
2023/01/24 11:13:36;;;;;;;12.82;8.43;;;3.00;99.90;;;;;;7337135;32;20122;-61
2023/01/24 11:17:41;;;;;;;11.00;7.97;;;3.10;99.90;;;;;;7337348;32;20607;-61
2023/01/24 11:21:52;;;;;;;10.98;8.00;;;3.00;99.90;;;;;;7343849;32;20122;-60
2023/01/24 11:25:56;;;;;;;11.43;8.25;;;3.10;99.90;;;;;;7336801;32;20115;-60
2023/01/24 11:30:33;;;;;;;11.70;8.35;;;3.10;99.90;;;;;;7341778;32;20285;-61
2023/01/24 11:34:37;;;;;;;12.70;8.27;;;3.20;99.90;;;;;;7336818;32;20206;-62
2023/01/24 11:38:43;;;;;;;11.93;7.93;;;3.20;99.90;;;;;;7340638;32;20564;-60
2023/01/24 11:43:10;;;;;;;10.55;7.45;;;3.30;99.90;;;;;;7336199;32;20164;-61
2023/01/24 11:47:29;;;;;;;12.53;8.30;;;3.10;99.90;;;;;;7340518;32;20208;-61
2023/01/24 11:52:08;;;;;;;10.35;8.10;;;2.90;99.90;;;;;;7344237;32;20805;-60
2023/01/24 11:56:42;;;;;;;10.20;8.25;;;3.00;99.90;;;;;;7338948;32;20119;-59
2023/01/24 12:00:58;;;;;;;10.95;8.65;;;3.00;99.90;;;;;;7338508;32;20177;-60
2023/01/24 12:05:21;;;;;;;11.57;9.03;;;3.00;99.90;;;;;;7347212;32;20181;-60
2023/01/24 12:09:34;;;;;;;12.07;9.18;;;3.10;99.90;;;;;;7336497;32;20711;-60
2023/01/24 12:13:58;;;;;;;12.18;8.48;;;3.10;99.90;;;;;;7338426;32;20198;-61
2023/01/24 12:18:31;;;;;;;11.48;8.55;;;3.10;99.90;;;;;;7349442;32;20616;-60
2023/01/24 12:22:34;;;;;;;13.02;9.23;;;3.10;99.90;;;;;;7347937;32;20126;-61
2023/01/24 12:26:38;;;;;;;12.93;8.18;;;3.20;99.90;;;;;;7345340;32;20201;-60
2023/01/24 12:30:43;;;;;;;10.18;8.05;;;3.10;99.90;;;;;;7347948;32;20191;-61
2023/01/24 12:35:19;;;;;;;12.02;8.43;;;3.20;99.90;;;;;;7347774;32;20259;-60
2023/01/24 12:39:31;;;;;;;10.45;8.13;;;3.30;99.90;;;;;;7346470;32;20207;-60
2023/01/24 12:44:00;;;;;;;12.00;8.38;;;3.20;99.90;;;;;;7339668;32;20135;-62
2023/01/24 12:48:19;;;;;;;12.48;8.98;;;3.10;99.90;;;;;;7340798;32;20150;-57
2023/01/24 12:52:24;;;;;;;11.27;8.32;;;2.90;99.90;;;;;;7338623;32;20111;-62
2023/01/24 12:56:29;;;;;;;11.80;8.98;;;3.10;99.90;;;;;;7341553;32;20236;-62
2023/01/24 13:00:53;;;;;;;11.02;8.60;;;3.10;99.90;;;;;;7347171;32;20096;-62
2023/01/24 13:05:00;;;;;;;12.00;9.00;;;3.20;99.90;;;;;;7346609;32;20107;-62
2023/01/24 13:09:34;;;;;;;11.30;8.77;;;3.20;99.90;;;;;;7344961;32;20123;-61
2023/01/24 13:14:10;;;;;;;11.93;8.48;;;3.20;99.90;;;;;;7344343;32;20186;-62
2023/01/24 13:18:38;;;;;;;10.80;8.45;;;3.10;99.90;;;;;;7332272;32;20839;-61
2023/01/24 13:23:05;;;;;;;;;;;3.00;99.90;;;;;;7346702;32;20130;-63
2023/01/24 13:27:36;;;;;;;15.32;8.40;;;3.00;99.90;;;;;;7339769;32;20237;-63
2023/01/24 13:32:03;;;;;;;13.23;8.82;;;3.00;99.90;;;;;;7325366;32;20518;-61
2023/01/24 13:36:07;;;;;;;12.75;8.48;;;3.10;99.90;;;;;;7343341;32;20108;-62
2023/01/24 13:40:15;;;;;;;11.38;8.93;;;3.20;99.90;;;;;;7334352;32;20235;-62
2023/01/24 13:44:29;;;;;;;12.40;8.80;;;3.10;99.90;;;;;;7336262;32;20474;-62
2023/01/24 13:48:40;;;;;;;11.35;8.68;;;3.10;99.90;;;;;;7319607;32;20237;-62
2023/01/24 13:52:54;;;;;;;11.63;8.52;;;3.20;99.90;;;;;;7349324;32;20850;-64
2023/01/24 13:57:28;;;;;;;11.35;8.25;;;3.20;99.90;;;;;;7348590;32;20212;-62
2023/01/24 14:01:30;;;;;;;10.55;8.68;;;3.10;99.90;;;;;;7338210;32;20111;-62
2023/01/24 14:05:33;;;;;;;11.15;9.00;;;3.00;99.90;;;;;;7338670;32;20140;-61
2023/01/24 14:09:35;;;;;;;12.20;8.02;;;3.00;99.90;;;;;;7342102;32;20111;-61
2023/01/24 14:13:43;;;;;;;11.63;8.93;;;3.00;99.90;;;;;;7328967;32;20283;-62
2023/01/24 14:17:48;;;;;;;12.57;9.18;;;2.80;99.90;;;;;;7345958;32;20244;-62
2023/01/24 14:22:10;;;;;;;11.00;8.60;;;2.70;99.90;;;;;;7347141;32;20107;-62
2023/01/24 14:26:18;;;;;;;12.70;9.23;;;2.70;99.90;;;;;;7346581;32;20130;-61
2023/01/24 14:30:26;;;;;;;13.00;8.65;;;2.70;99.90;;;;;;7345494;32;20156;-62
2023/01/24 14:34:40;;;;;;;11.90;9.23;;;2.70;99.90;;;;;;7341208;32;20151;-62
2023/01/24 14:38:42;;;;;;;12.45;9.30;;;2.70;99.90;;;;;;7338238;32;20151;-63
2023/01/24 14:42:44;;;;;;;11.90;9.00;;;2.80;99.90;;;;;;7344438;32;20554;-63
2023/01/24 14:46:52;;;;;;;11.40;8.63;;;2.80;99.90;;;;;;7339587;32;20338;-64
2023/01/24 14:51:03;;;;;;;13.30;8.95;;;2.70;99.90;;;;;;7342668;32;20121;-62
2023/01/24 14:55:17;;;;;;;10.20;8.70;;;2.70;99.90;;;;;;7341827;32;20115;-62
2023/01/24 14:59:21;;;;;;;14.13;8.82;;;2.80;99.90;;;;;;7349271;32;20277;-63
2023/01/24 15:03:25;;;;;;;10.32;8.02;;;2.60;99.90;;;;;;7339345;32;20493;-62
2023/01/24 15:07:27;;;;;;;11.88;8.75;;;2.50;99.90;;;;;;7321483;32;20623;-62
2023/01/24 15:11:33;;;;;;;10.55;8.60;;;2.50;99.90;;;;;;7344027;32;20780;-62
2023/01/24 15:15:38;;;;;;;11.55;8.30;;;2.40;99.90;;;;;;7324835;32;20210;-63
2023/01/24 15:19:40;;;;;;;12.05;9.02;;;2.40;99.90;;;;;;7329596;32;20199;-64
2023/01/24 15:23:41;;;;;;;12.52;9.30;;;2.40;99.90;;;;;;7338472;32;20095;-60
2023/01/24 15:27:43;;;;;;;12.65;9.18;;;2.40;99.90;;;;;;7341585;32;20190;-64
2023/01/24 15:31:55;;;;;;;13.00;9.60;;;2.30;99.90;;;;;;7330863;32;20187;-62
2023/01/24 15:35:57;;;;;;;13.98;9.48;;;2.10;99.90;;;;;;7334756;32;20147;-62
2023/01/24 15:39:59;;;;;;;13.40;8.73;;;2.00;99.90;;;;;;7336782;32;20330;-64
2023/01/24 15:44:06;;;;;;;12.98;8.73;;;1.90;99.90;;;;;;7337515;32;20128;-63
2023/01/24 15:48:13;;;;;;;10.95;8.70;;;2.00;99.90;;;;;;7341743;32;20103;-63
2023/01/24 15:52:18;;;;;;;12.52;9.52;;;2.00;99.90;;;;;;7335729;32;20117;-63
2023/01/24 15:56:22;;;;;;;14.10;8.65;;;2.20;99.90;;;;;;7339533;32;20129;-63
2023/01/24 16:00:24;;;;;;;12.90;9.60;;;2.10;99.90;;;;;;7341039;32;20221;-63
2023/01/24 16:04:27;;;;;;;11.85;9.05;;;2.20;99.90;;;;;;7338898;32;20168;-64
2023/01/24 16:08:28;;;;;;;12.63;8.98;;;2.10;99.90;;;;;;7343516;32;20099;-61
2023/01/24 16:12:32;;;;;;;12.00;9.25;;;2.10;99.90;;;;;;7343193;32;20103;-63
2023/01/24 16:16:35;;;;;;;14.07;9.63;;;2.20;99.90;;;;;;7337132;32;20099;-63
2023/01/24 16:20:36;;;;;;;12.93;9.90;;;2.00;99.90;;;;;;7331670;32;20194;-61
2023/01/24 16:24:38;;;;;;;13.85;9.82;;;1.90;99.90;;;;;;7335853;32;20717;-62
2023/01/24 16:28:40;;;;;;;13.05;9.52;;;1.90;99.90;;;;;;7340854;32;20099;-61
2023/01/24 16:32:41;;;;;;;11.65;8.98;;;1.90;99.90;;;;;;7337790;32;20227;-61
2023/01/24 16:36:43;;;;;;;12.05;8.95;;;1.90;99.90;;;;;;7342600;32;20123;-62
2023/01/24 16:40:45;;;;;;;11.95;8.68;;;1.90;99.90;;;;;;7339813;32;20849;-62
2023/01/24 16:44:58;;;;;;;12.02;8.82;;;1.80;99.90;;;;;;7337332;32;20212;-62
2023/01/24 16:49:00;;;;;;;13.70;10.10;;;1.90;99.90;;;;;;7338443;32;20118;-61
2023/01/24 16:53:02;;;;;;;12.82;10.02;;;1.80;99.90;;;;;;7340694;32;20107;-61
2023/01/24 16:57:04;;;;;;;12.43;9.13;;;1.90;99.90;;;;;;7333021;32;20226;-61
2023/01/24 17:01:07;;;;;;;14.13;9.75;;;1.80;99.90;;;;;;7334824;32;20157;-61
2023/01/24 17:05:11;;;;;;;15.93;9.07;;;1.90;99.90;;;;;;7338890;32;20228;-60
2023/01/24 17:09:12;;;;;;;12.30;9.60;;;1.80;99.90;;;;;;7341476;32;20682;-61
2023/01/24 17:13:14;;;;;;;12.60;9.57;;;1.80;99.90;;;;;;7347131;32;20115;-60
2023/01/24 17:17:15;;;;;;;13.25;9.48;;;1.80;99.90;;;;;;7342965;32;20256;-61
2023/01/24 17:21:17;;;;;;;11.52;9.85;;;1.80;99.90;;;;;;7347383;32;20116;-60
2023/01/24 17:25:19;;;;;;;13.13;10.10;;;1.90;99.90;;;;;;7348660;32;20102;-60
2023/01/24 17:29:27;;;;;;;14.52;10.50;;;1.70;99.90;;;;;;7339576;32;20111;-60
2023/01/24 17:33:29;;;;;;;17.83;14.60;;;1.70;99.90;;;;;;7347497;32;20103;-60
2023/01/24 17:37:31;;;;;;;13.27;10.25;;;1.70;99.90;;;;;;7345061;32;20574;-60
2023/01/24 17:41:33;;;;;;;15.05;12.10;;;1.70;99.90;;;;;;7340994;32;20139;-60
2023/01/24 17:45:34;;;;;;;14.55;10.52;;;1.80;99.90;;;;;;7343737;32;20591;-61
2023/01/24 17:49:36;;;;;;;27.35;20.83;;;1.70;99.90;;;;;;7334717;32;20717;-60
2023/01/24 17:53:39;;;;;;;17.42;12.82;;;1.70;99.90;;;;;;7337562;32;20260;-60
2023/01/24 17:57:41;;;;;;;15.38;11.52;;;1.80;99.90;;;;;;7337962;32;20751;-59
2023/01/24 18:01:42;;;;;;;19.05;13.57;;;1.80;99.90;;;;;;7341480;32;20243;-60
2023/01/24 18:05:44;;;;;;;16.40;12.15;;;1.80;99.90;;;;;;7344757;32;20210;-60
2023/01/24 18:09:46;;;;;;;20.95;14.20;;;1.80;99.90;;;;;;7341146;32;20104;-59
2023/01/24 18:13:47;;;;;;;20.05;15.48;;;1.80;99.90;;;;;;7344576;32;20213;-59
2023/01/24 18:17:49;;;;;;;26.10;17.25;;;1.80;99.90;;;;;;7352093;32;20239;-59
2023/01/24 18:21:51;;;;;;;31.35;22.80;;;1.80;99.90;;;;;;7338384;32;20111;-63
2023/01/24 18:25:53;;;;;;;24.00;17.17;;;1.80;99.90;;;;;;7335074;32;20198;-60
2023/01/24 18:29:54;;;;;;;21.02;13.88;;;1.70;99.90;;;;;;7338105;32;20146;-61
2023/01/24 18:33:59;;;;;;;34.50;23.80;;;1.80;99.90;;;;;;7342925;32;20341;-60
2023/01/24 18:38:01;;;;;;;18.95;14.40;;;1.70;99.90;;;;;;7338094;32;20108;-59
2023/01/24 18:42:05;;;;;;;20.90;14.68;;;1.60;99.90;;;;;;7339499;32;20149;-60
2023/01/24 18:46:10;;;;;;;19.80;15.10;;;1.70;99.90;;;;;;7335463;32;20199;-59
2023/01/24 18:50:12;;;;;;;24.90;17.48;;;1.70;99.90;;;;;;7341223;32;20658;-59
2023/01/24 18:54:14;;;;;;;25.83;18.42;;;1.70;99.90;;;;;;7346233;32;20703;-61
2023/01/24 18:58:16;;;;;;;19.80;14.87;;;1.70;99.90;;;;;;7341444;32;20115;-61
2023/01/24 19:02:17;;;;;;;20.67;16.20;;;1.70;99.90;;;;;;7339992;32;20763;-61
2023/01/24 19:06:26;;;;;;;26.50;17.10;;;1.70;99.90;;;;;;7340718;32;20198;-61
2023/01/24 19:10:28;;;;;;;22.67;15.95;;;1.70;99.90;;;;;;7340132;32;20104;-61
2023/01/24 19:14:30;;;;;;;23.15;17.77;;;1.70;99.90;;;;;;7342316;32;20100;-61
2023/01/24 19:18:32;;;;;;;19.85;15.05;;;1.70;99.90;;;;;;7334863;32;20125;-61
2023/01/24 19:22:34;;;;;;;19.75;15.23;;;1.60;99.90;;;;;;7331429;32;20202;-61
2023/01/24 19:26:35;;;;;;;21.48;16.42;;;1.70;99.90;;;;;;7339866;32;20177;-61
2023/01/24 19:30:37;;;;;;;21.75;15.30;;;1.70;99.90;;;;;;7335946;32;20210;-61
2023/01/24 19:34:39;;;;;;;20.90;14.43;;;1.60;99.90;;;;;;7338437;32;20103;-62
2023/01/24 19:38:41;;;;;;;21.37;15.02;;;1.60;99.90;;;;;;7346558;32;20170;-61
2023/01/24 19:42:46;;;;;;;18.92;13.57;;;1.60;99.90;;;;;;7336433;32;20287;-61
2023/01/24 19:46:49;;;;;;;19.90;15.32;;;1.60;99.90;;;;;;7337078;32;20234;-61
2023/01/24 19:50:51;;;;;;;20.37;14.45;;;1.60;99.90;;;;;;7342866;32;20741;-61
2023/01/24 19:54:53;;;;;;;18.67;13.93;;;1.60;99.90;;;;;;7344136;32;20133;-62
2023/01/24 19:58:56;;;;;;;19.98;14.15;;;1.60;99.90;;;;;;7332925;32;20810;-62
2023/01/24 20:02:58;;;;;;;20.15;13.93;;;1.70;99.90;;;;;;7339288;32;20224;-61
2023/01/24 20:07:00;;;;;;;19.90;14.52;;;1.60;99.90;;;;;;7341380;32;20103;-60
2023/01/24 20:11:06;;;;;;;22.60;16.75;;;1.60;99.90;;;;;;7342051;32;20158;-60
2023/01/24 20:15:09;;;;;;;19.30;14.47;;;1.60;99.90;;;;;;7337914;32;20199;-61
2023/01/24 20:19:11;;;;;;;19.05;13.65;;;1.60;99.90;;;;;;7331565;32;20104;-62
2023/01/24 20:23:28;;;;;;;20.67;14.23;;;1.60;99.90;;;;;;7345583;32;20122;-63
2023/01/24 20:27:29;;;;;;;20.92;14.98;;;1.60;99.90;;;;;;7336822;32;20171;-60
2023/01/24 20:31:31;;;;;;;21.55;14.90;;;1.60;99.90;;;;;;7334529;32;20248;-61
2023/01/24 20:35:33;;;;;;;20.48;14.68;;;1.60;99.90;;;;;;7348998;32;20197;-61
2023/01/24 20:39:35;;;;;;;18.25;13.93;;;1.60;99.90;;;;;;7344869;32;20221;-62
2023/01/24 20:43:38;;;;;;;21.55;15.27;;;1.60;99.90;;;;;;7339955;32;20108;-61
2023/01/24 20:47:40;;;;;;;21.12;15.00;;;1.60;99.90;;;;;;7341318;32;20813;-61
2023/01/24 20:51:42;;;;;;;19.30;13.93;;;1.50;99.90;;;;;;7343561;32;20103;-61
2023/01/24 20:55:45;;;;;;;20.50;14.38;;;1.50;99.90;;;;;;7348088;32;20129;-60
2023/01/24 20:59:47;;;;;;;21.62;14.87;;;1.30;99.90;;;;;;7342761;32;20178;-61
2023/01/24 21:03:49;;;;;;;19.67;14.20;;;1.20;99.90;;;;;;7339898;32;20107;-62
2023/01/24 21:07:51;;;;;;;24.77;16.45;;;1.30;99.90;;;;;;7334566;32;20114;-61
2023/01/24 21:11:53;;;;;;;21.10;15.60;;;1.20;99.90;;;;;;7341072;32;20198;-61
2023/01/24 21:15:55;;;;;;;23.02;16.02;;;1.20;99.90;;;;;;7339337;32;20100;-61
2023/01/24 21:19:57;;;;;;;21.15;15.23;;;1.20;99.90;;;;;;7338431;32;20190;-61
2023/01/24 21:24:08;;;;;;;23.02;16.17;;;1.20;99.90;;;;;;7338036;32;20190;-62
2023/01/24 21:28:13;;;;;;;24.08;16.37;;;1.10;99.90;;;;;;7334234;32;20190;-60
2023/01/24 21:32:15;;;;;;;23.62;16.02;;;1.00;99.90;;;;;;7342862;32;20209;-62
2023/01/24 21:36:19;;;;;;;22.17;15.15;;;1.10;99.90;;;;;;7339629;32;20115;-60
2023/01/24 21:40:24;;;;;;;20.50;15.13;;;1.10;99.90;;;;;;7345822;32;20103;-60
2023/01/24 21:44:30;;;;;;;21.27;15.80;;;1.10;99.90;;;;;;7337415;32;20118;-60
2023/01/24 21:52:51;;;;;;;24.60;16.73;;;1.20;99.90;;;;;;7342656;32;20103;-60
2023/01/24 22:01:31;;;;;;;21.52;15.75;;;0.90;99.90;;;;;;7338229;32;20665;-61
2023/01/24 22:05:33;;;;;;;25.48;15.85;;;0.90;99.90;;;;;;7340461;32;20196;-61
2023/01/24 22:09:35;;;;;;;26.37;16.70;;;0.90;99.90;;;;;;7333141;32;20178;-62